sensor_id;sensor_type;location;lat;lon;timestamp;P1;durP1;ratioP1;P2;durP2;ratioP2
21941;SDS011;11135;54.192;15.670;2023-05-29T00:01:57;9.45;;;5.00;;
21941;SDS011;11135;54.192;15.670;2023-05-29T00:05:07;7.43;;;4.30;;
21941;SDS011;11135;54.192;15.670;2023-05-29T00:08:14;9.27;;;4.53;;
21941;SDS011;11135;54.192;15.670;2023-05-29T00:11:22;8.82;;;4.40;;
21941;SDS011;11135;54.192;15.670;2023-05-29T00:14:28;8.55;;;5.00;;
21941;SDS011;11135;54.192;15.670;2023-05-29T00:17:34;7.90;;;4.13;;
21941;SDS011;11135;54.192;15.670;2023-05-29T00:20:45;8.90;;;4.82;;
21941;SDS011;11135;54.192;15.670;2023-05-29T00:23:52;9.93;;;4.30;;
21941;SDS011;11135;54.192;15.670;2023-05-29T00:27:00;8.38;;;4.50;;
21941;SDS011;11135;54.192;15.670;2023-05-29T00:30:08;7.20;;;4.32;;
21941;SDS011;11135;54.192;15.670;2023-05-29T00:33:14;7.65;;;4.95;;
21941;SDS011;11135;54.192;15.670;2023-05-29T00:36:23;7.75;;;5.28;;
21941;SDS011;11135;54.192;15.670;2023-05-29T00:39:30;7.78;;;4.80;;
21941;SDS011;11135;54.192;15.670;2023-05-29T00:42:37;8.90;;;4.57;;
21941;SDS011;11135;54.192;15.670;2023-05-29T00:45:45;8.27;;;4.47;;
21941;SDS011;11135;54.192;15.670;2023-05-29T00:48:51;8.82;;;4.60;;
21941;SDS011;11135;54.192;15.670;2023-05-29T00:52:00;9.88;;;4.60;;
21941;SDS011;11135;54.192;15.670;2023-05-29T00:55:08;8.63;;;4.68;;
21941;SDS011;11135;54.192;15.670;2023-05-29T00:58:13;9.45;;;4.97;;
21941;SDS011;11135;54.192;15.670;2023-05-29T01:01:19;8.93;;;4.70;;
21941;SDS011;11135;54.192;15.670;2023-05-29T01:04:30;7.43;;;4.82;;
21941;SDS011;11135;54.192;15.670;2023-05-29T01:07:42;6.78;;;4.47;;
21941;SDS011;11135;54.192;15.670;2023-05-29T01:10:47;9.48;;;5.53;;
21941;SDS011;11135;54.192;15.670;2023-05-29T01:13:57;8.45;;;5.13;;
21941;SDS011;11135;54.192;15.670;2023-05-29T01:17:07;8.25;;;4.72;;
21941;SDS011;11135;54.192;15.670;2023-05-29T01:20:18;9.23;;;4.65;;
21941;SDS011;11135;54.192;15.670;2023-05-29T01:23:45;11.05;;;5.13;;
21941;SDS011;11135;54.192;15.670;2023-05-29T01:27:00;10.10;;;5.18;;
21941;SDS011;11135;54.192;15.670;2023-05-29T01:30:10;9.05;;;4.72;;
21941;SDS011;11135;54.192;15.670;2023-05-29T01:33:20;8.50;;;4.85;;
21941;SDS011;11135;54.192;15.670;2023-05-29T01:36:27;9.50;;;4.93;;
21941;SDS011;11135;54.192;15.670;2023-05-29T01:39:35;8.93;;;5.10;;
21941;SDS011;11135;54.192;15.670;2023-05-29T01:42:42;8.23;;;4.50;;
21941;SDS011;11135;54.192;15.670;2023-05-29T01:45:48;8.40;;;5.05;;
21941;SDS011;11135;54.192;15.670;2023-05-29T01:48:58;8.32;;;4.15;;
21941;SDS011;11135;54.192;15.670;2023-05-29T01:52:05;9.95;;;4.90;;
21941;SDS011;11135;54.192;15.670;2023-05-29T01:55:12;8.73;;;4.80;;
21941;SDS011;11135;54.192;15.670;2023-05-29T01:58:21;8.02;;;4.50;;
21941;SDS011;11135;54.192;15.670;2023-05-29T02:01:27;10.07;;;4.80;;
21941;SDS011;11135;54.192;15.670;2023-05-29T02:04:34;7.75;;;4.38;;
21941;SDS011;11135;54.192;15.670;2023-05-29T02:07:40;9.25;;;4.45;;
21941;SDS011;11135;54.192;15.670;2023-05-29T02:10:46;7.38;;;4.75;;
21941;SDS011;11135;54.192;15.670;2023-05-29T02:13:56;8.27;;;4.80;;
21941;SDS011;11135;54.192;15.670;2023-05-29T02:17:05;10.07;;;4.80;;
21941;SDS011;11135;54.192;15.670;2023-05-29T02:20:11;9.05;;;4.88;;
21941;SDS011;11135;54.192;15.670;2023-05-29T02:23:17;6.90;;;4.45;;
21941;SDS011;11135;54.192;15.670;2023-05-29T02:26:23;10.70;;;4.85;;
21941;SDS011;11135;54.192;15.670;2023-05-29T02:29:31;9.55;;;5.43;;
21941;SDS011;11135;54.192;15.670;2023-05-29T02:32:36;9.95;;;4.28;;
21941;SDS011;11135;54.192;15.670;2023-05-29T02:35:45;7.90;;;4.55;;
21941;SDS011;11135;54.192;15.670;2023-05-29T02:38:51;6.97;;;4.03;;
21941;SDS011;11135;54.192;15.670;2023-05-29T02:41:56;8.73;;;4.95;;
21941;SDS011;11135;54.192;15.670;2023-05-29T02:45:06;6.72;;;4.45;;
21941;SDS011;11135;54.192;15.670;2023-05-29T02:48:12;10.85;;;5.28;;
21941;SDS011;11135;54.192;15.670;2023-05-29T02:51:17;8.15;;;3.97;;
21941;SDS011;11135;54.192;15.670;2023-05-29T02:54:24;9.88;;;3.88;;
21941;SDS011;11135;54.192;15.670;2023-05-29T02:57:32;8.30;;;4.05;;
21941;SDS011;11135;54.192;15.670;2023-05-29T03:00:42;6.93;;;4.10;;
21941;SDS011;11135;54.192;15.670;2023-05-29T03:03:48;7.43;;;3.85;;
21941;SDS011;11135;54.192;15.670;2023-05-29T03:06:54;8.15;;;3.85;;
21941;SDS011;11135;54.192;15.670;2023-05-29T03:09:59;8.30;;;3.72;;
21941;SDS011;11135;54.192;15.670;2023-05-29T03:13:08;8.18;;;3.85;;
21941;SDS011;11135;54.192;15.670;2023-05-29T03:16:16;7.82;;;4.18;;
21941;SDS011;11135;54.192;15.670;2023-05-29T03:19:22;10.27;;;4.03;;
21941;SDS011;11135;54.192;15.670;2023-05-29T03:22:27;8.25;;;3.58;;
21941;SDS011;11135;54.192;15.670;2023-05-29T03:25:33;7.78;;;4.45;;
21941;SDS011;11135;54.192;15.670;2023-05-29T03:28:39;9.02;;;3.90;;
21941;SDS011;11135;54.192;15.670;2023-05-29T03:31:47;5.20;;;3.67;;
21941;SDS011;11135;54.192;15.670;2023-05-29T03:34:53;6.10;;;3.50;;
21941;SDS011;11135;54.192;15.670;2023-05-29T03:38:00;9.35;;;5.15;;
21941;SDS011;11135;54.192;15.670;2023-05-29T03:41:06;6.22;;;3.63;;
21941;SDS011;11135;54.192;15.670;2023-05-29T03:44:11;7.07;;;3.45;;
21941;SDS011;11135;54.192;15.670;2023-05-29T03:47:21;5.28;;;3.50;;
21941;SDS011;11135;54.192;15.670;2023-05-29T03:50:27;6.80;;;3.25;;
21941;SDS011;11135;54.192;15.670;2023-05-29T03:53:33;6.25;;;3.42;;
21941;SDS011;11135;54.192;15.670;2023-05-29T03:56:38;7.63;;;3.60;;
21941;SDS011;11135;54.192;15.670;2023-05-29T03:59:47;6.95;;;3.25;;
21941;SDS011;11135;54.192;15.670;2023-05-29T04:02:55;7.95;;;3.55;;
21941;SDS011;11135;54.192;15.670;2023-05-29T04:06:01;7.82;;;3.90;;
21941;SDS011;11135;54.192;15.670;2023-05-29T04:09:07;6.68;;;3.35;;
21941;SDS011;11135;54.192;15.670;2023-05-29T04:12:13;5.75;;;3.30;;
21941;SDS011;11135;54.192;15.670;2023-05-29T04:15:19;7.57;;;4.65;;
21941;SDS011;11135;54.192;15.670;2023-05-29T04:18:29;8.77;;;3.80;;
21941;SDS011;11135;54.192;15.670;2023-05-29T04:21:34;7.82;;;3.58;;
21941;SDS011;11135;54.192;15.670;2023-05-29T04:24:40;6.40;;;3.53;;
21941;SDS011;11135;54.192;15.670;2023-05-29T04:27:47;10.13;;;3.63;;
21941;SDS011;11135;54.192;15.670;2023-05-29T04:30:52;11.00;;;3.75;;
21941;SDS011;11135;54.192;15.670;2023-05-29T04:34:01;5.30;;;2.97;;
21941;SDS011;11135;54.192;15.670;2023-05-29T04:37:06;11.75;;;4.78;;
21941;SDS011;11135;54.192;15.670;2023-05-29T04:40:13;6.75;;;3.08;;
21941;SDS011;11135;54.192;15.670;2023-05-29T04:43:21;9.65;;;2.53;;
21941;SDS011;11135;54.192;15.670;2023-05-29T04:46:29;10.45;;;2.95;;
21941;SDS011;11135;54.192;15.670;2023-05-29T04:49:44;13.05;;;4.25;;
21941;SDS011;11135;54.192;15.670;2023-05-29T04:52:54;8.77;;;1.80;;
21941;SDS011;11135;54.192;15.670;2023-05-29T04:56:01;7.63;;;1.77;;
21941;SDS011;11135;54.192;15.670;2023-05-29T04:59:08;9.93;;;2.45;;
21941;SDS011;11135;54.192;15.670;2023-05-29T05:02:14;8.48;;;1.73;;
21941;SDS011;11135;54.192;15.670;2023-05-29T05:05:23;8.25;;;1.90;;
21941;SDS011;11135;54.192;15.670;2023-05-29T05:08:29;5.90;;;1.77;;
21941;SDS011;11135;54.192;15.670;2023-05-29T05:11:37;10.68;;;1.77;;
21941;SDS011;11135;54.192;15.670;2023-05-29T05:14:48;5.30;;;1.23;;
21941;SDS011;11135;54.192;15.670;2023-05-29T05:17:55;8.75;;;1.95;;
21941;SDS011;11135;54.192;15.670;2023-05-29T05:21:06;13.45;;;2.67;;
21941;SDS011;11135;54.192;15.670;2023-05-29T05:24:15;10.15;;;1.58;;
21941;SDS011;11135;54.192;15.670;2023-05-29T05:27:23;6.28;;;1.58;;
21941;SDS011;11135;54.192;15.670;2023-05-29T05:30:31;8.05;;;1.80;;
21941;SDS011;11135;54.192;15.670;2023-05-29T05:33:39;10.00;;;2.60;;
21941;SDS011;11135;54.192;15.670;2023-05-29T05:36:48;8.30;;;2.15;;
21941;SDS011;11135;54.192;15.670;2023-05-29T05:39:54;9.15;;;1.70;;
21941;SDS011;11135;54.192;15.670;2023-05-29T05:43:05;10.98;;;2.17;;
21941;SDS011;11135;54.192;15.670;2023-05-29T05:46:11;8.90;;;1.92;;
21941;SDS011;11135;54.192;15.670;2023-05-29T05:49:18;10.40;;;2.22;;
21941;SDS011;11135;54.192;15.670;2023-05-29T05:52:26;13.10;;;3.10;;
21941;SDS011;11135;54.192;15.670;2023-05-29T05:55:34;10.93;;;2.10;;
21941;SDS011;11135;54.192;15.670;2023-05-29T05:58:42;8.82;;;1.90;;
21941;SDS011;11135;54.192;15.670;2023-05-29T06:02:01;11.30;;;1.75;;
21941;SDS011;11135;54.192;15.670;2023-05-29T06:05:12;7.25;;;1.88;;
21941;SDS011;11135;54.192;15.670;2023-05-29T06:08:21;6.90;;;1.40;;
21941;SDS011;11135;54.192;15.670;2023-05-29T06:11:27;10.45;;;2.05;;
21941;SDS011;11135;54.192;15.670;2023-05-29T06:14:37;8.40;;;1.92;;
21941;SDS011;11135;54.192;15.670;2023-05-29T06:17:43;9.77;;;1.85;;
21941;SDS011;11135;54.192;15.670;2023-05-29T06:20:57;8.68;;;2.20;;
21941;SDS011;11135;54.192;15.670;2023-05-29T06:24:06;9.65;;;2.20;;
21941;SDS011;11135;54.192;15.670;2023-05-29T06:27:12;6.57;;;1.50;;
21941;SDS011;11135;54.192;15.670;2023-05-29T06:30:18;7.18;;;2.05;;
21941;SDS011;11135;54.192;15.670;2023-05-29T06:33:25;13.93;;;2.42;;
21941;SDS011;11135;54.192;15.670;2023-05-29T06:36:33;9.68;;;2.15;;
21941;SDS011;11135;54.192;15.670;2023-05-29T06:39:46;9.75;;;1.92;;
21941;SDS011;11135;54.192;15.670;2023-05-29T06:42:52;10.63;;;2.28;;
21941;SDS011;11135;54.192;15.670;2023-05-29T06:45:57;10.02;;;2.17;;
21941;SDS011;11135;54.192;15.670;2023-05-29T06:49:03;8.88;;;1.83;;
21941;SDS011;11135;54.192;15.670;2023-05-29T06:52:09;9.30;;;1.80;;
21941;SDS011;11135;54.192;15.670;2023-05-29T06:55:19;10.63;;;2.03;;
21941;SDS011;11135;54.192;15.670;2023-05-29T06:58:25;10.40;;;1.90;;
21941;SDS011;11135;54.192;15.670;2023-05-29T07:01:31;11.98;;;2.25;;
21941;SDS011;11135;54.192;15.670;2023-05-29T07:04:37;10.00;;;1.95;;
21941;SDS011;11135;54.192;15.670;2023-05-29T07:07:43;10.05;;;2.40;;
21941;SDS011;11135;54.192;15.670;2023-05-29T07:10:53;9.50;;;1.83;;
21941;SDS011;11135;54.192;15.670;2023-05-29T07:14:01;13.15;;;2.88;;
21941;SDS011;11135;54.192;15.670;2023-05-29T07:17:07;8.75;;;2.15;;
21941;SDS011;11135;54.192;15.670;2023-05-29T07:20:15;8.68;;;2.17;;
21941;SDS011;11135;54.192;15.670;2023-05-29T07:23:23;8.57;;;2.08;;
21941;SDS011;11135;54.192;15.670;2023-05-29T07:26:35;8.00;;;2.00;;
21941;SDS011;11135;54.192;15.670;2023-05-29T07:29:42;12.18;;;3.10;;
21941;SDS011;11135;54.192;15.670;2023-05-29T07:32:50;11.05;;;2.40;;
21941;SDS011;11135;54.192;15.670;2023-05-29T07:35:58;16.77;;;2.58;;
21941;SDS011;11135;54.192;15.670;2023-05-29T07:39:06;7.32;;;1.65;;
21941;SDS011;11135;54.192;15.670;2023-05-29T07:42:15;9.98;;;1.98;;
21941;SDS011;11135;54.192;15.670;2023-05-29T07:45:21;10.45;;;2.22;;
21941;SDS011;11135;54.192;15.670;2023-05-29T07:48:30;12.05;;;2.30;;
21941;SDS011;11135;54.192;15.670;2023-05-29T07:51:38;11.98;;;3.13;;
21941;SDS011;11135;54.192;15.670;2023-05-29T07:54:46;8.60;;;1.52;;
21941;SDS011;11135;54.192;15.670;2023-05-29T07:57:58;10.15;;;1.98;;
21941;SDS011;11135;54.192;15.670;2023-05-29T08:01:06;11.27;;;2.20;;
21941;SDS011;11135;54.192;15.670;2023-05-29T08:04:12;13.02;;;2.20;;
21941;SDS011;11135;54.192;15.670;2023-05-29T08:07:18;11.35;;;2.90;;
21941;SDS011;11135;54.192;15.670;2023-05-29T08:10:26;9.05;;;1.92;;
21941;SDS011;11135;54.192;15.670;2023-05-29T08:13:35;10.10;;;2.25;;
21941;SDS011;11135;54.192;15.670;2023-05-29T08:16:41;13.15;;;2.03;;
21941;SDS011;11135;54.192;15.670;2023-05-29T08:19:48;9.68;;;2.15;;
21941;SDS011;11135;54.192;15.670;2023-05-29T08:22:53;7.30;;;1.88;;
21941;SDS011;11135;54.192;15.670;2023-05-29T08:26:01;8.43;;;2.45;;
21941;SDS011;11135;54.192;15.670;2023-05-29T08:29:12;11.20;;;2.10;;
21941;SDS011;11135;54.192;15.670;2023-05-29T08:32:20;9.52;;;1.85;;
21941;SDS011;11135;54.192;15.670;2023-05-29T08:35:26;8.05;;;2.00;;
21941;SDS011;11135;54.192;15.670;2023-05-29T08:38:35;10.63;;;1.83;;
21941;SDS011;11135;54.192;15.670;2023-05-29T08:41:43;8.43;;;1.95;;
21941;SDS011;11135;54.192;15.670;2023-05-29T08:44:56;7.13;;;1.50;;
21941;SDS011;11135;54.192;15.670;2023-05-29T08:48:04;7.00;;;2.08;;
21941;SDS011;11135;54.192;15.670;2023-05-29T08:51:12;12.93;;;2.22;;
21941;SDS011;11135;54.192;15.670;2023-05-29T08:54:19;8.25;;;1.90;;
21941;SDS011;11135;54.192;15.670;2023-05-29T08:57:27;7.85;;;2.33;;
21941;SDS011;11135;54.192;15.670;2023-05-29T09:00:38;10.70;;;2.30;;
21941;SDS011;11135;54.192;15.670;2023-05-29T09:03:44;9.77;;;3.05;;
21941;SDS011;11135;54.192;15.670;2023-05-29T09:06:51;9.93;;;2.42;;
21941;SDS011;11135;54.192;15.670;2023-05-29T09:09:59;11.25;;;2.85;;
21941;SDS011;11135;54.192;15.670;2023-05-29T09:13:04;7.88;;;2.13;;
21941;SDS011;11135;54.192;15.670;2023-05-29T09:16:16;10.10;;;2.45;;
21941;SDS011;11135;54.192;15.670;2023-05-29T09:19:24;10.68;;;2.20;;
21941;SDS011;11135;54.192;15.670;2023-05-29T09:22:31;6.78;;;1.58;;
21941;SDS011;11135;54.192;15.670;2023-05-29T09:25:39;9.93;;;1.83;;
21941;SDS011;11135;54.192;15.670;2023-05-29T09:28:46;8.15;;;2.33;;
21941;SDS011;11135;54.192;15.670;2023-05-29T09:31:56;7.30;;;1.80;;
21941;SDS011;11135;54.192;15.670;2023-05-29T09:35:06;7.25;;;1.70;;
21941;SDS011;11135;54.192;15.670;2023-05-29T09:38:12;8.30;;;1.80;;
21941;SDS011;11135;54.192;15.670;2023-05-29T09:41:34;6.43;;;1.42;;
21941;SDS011;11135;54.192;15.670;2023-05-29T09:44:40;8.77;;;2.15;;
21941;SDS011;11135;54.192;15.670;2023-05-29T09:47:50;9.75;;;2.00;;
21941;SDS011;11135;54.192;15.670;2023-05-29T09:50:56;9.35;;;2.40;;
21941;SDS011;11135;54.192;15.670;2023-05-29T09:54:13;7.32;;;1.48;;
21941;SDS011;11135;54.192;15.670;2023-05-29T09:57:20;10.20;;;2.30;;
21941;SDS011;11135;54.192;15.670;2023-05-29T10:00:27;8.00;;;1.77;;
21941;SDS011;11135;54.192;15.670;2023-05-29T10:03:40;13.32;;;2.20;;
21941;SDS011;11135;54.192;15.670;2023-05-29T10:06:46;11.32;;;2.20;;
21941;SDS011;11135;54.192;15.670;2023-05-29T10:13:04;9.15;;;1.73;;
21941;SDS011;11135;54.192;15.670;2023-05-29T10:16:12;8.73;;;1.70;;
21941;SDS011;11135;54.192;15.670;2023-05-29T10:19:25;9.13;;;1.80;;
21941;SDS011;11135;54.192;15.670;2023-05-29T10:22:32;11.70;;;2.15;;
21941;SDS011;11135;54.192;15.670;2023-05-29T10:25:40;9.15;;;1.63;;
21941;SDS011;11135;54.192;15.670;2023-05-29T10:28:48;12.23;;;2.15;;
21941;SDS011;11135;54.192;15.670;2023-05-29T10:32:14;6.05;;;1.90;;
21941;SDS011;11135;54.192;15.670;2023-05-29T10:35:27;10.10;;;2.83;;
21941;SDS011;11135;54.192;15.670;2023-05-29T10:38:37;8.88;;;1.90;;
21941;SDS011;11135;54.192;15.670;2023-05-29T10:41:47;10.10;;;2.00;;
21941;SDS011;11135;54.192;15.670;2023-05-29T10:44:55;11.10;;;2.05;;
21941;SDS011;11135;54.192;15.670;2023-05-29T10:51:42;10.55;;;2.70;;
21941;SDS011;11135;54.192;15.670;2023-05-29T10:54:52;10.52;;;2.97;;
21941;SDS011;11135;54.192;15.670;2023-05-29T10:58:04;11.70;;;2.20;;
21941;SDS011;11135;54.192;15.670;2023-05-29T11:01:16;10.02;;;1.73;;
21941;SDS011;11135;54.192;15.670;2023-05-29T11:04:29;9.18;;;2.00;;
21941;SDS011;11135;54.192;15.670;2023-05-29T11:07:51;8.48;;;2.00;;
21941;SDS011;11135;54.192;15.670;2023-05-29T11:11:02;8.85;;;2.00;;
21941;SDS011;11135;54.192;15.670;2023-05-29T11:14:07;7.93;;;2.08;;
21941;SDS011;11135;54.192;15.670;2023-05-29T11:20:36;5.88;;;1.60;;
21941;SDS011;11135;54.192;15.670;2023-05-29T11:23:47;8.02;;;2.17;;
21941;SDS011;11135;54.192;15.670;2023-05-29T11:26:57;11.60;;;2.08;;
21941;SDS011;11135;54.192;15.670;2023-05-29T11:30:09;10.57;;;2.47;;
21941;SDS011;11135;54.192;15.670;2023-05-29T11:33:23;7.32;;;1.60;;
21941;SDS011;11135;54.192;15.670;2023-05-29T11:36:33;9.23;;;2.20;;
21941;SDS011;11135;54.192;15.670;2023-05-29T11:39:41;8.57;;;2.28;;
21941;SDS011;11135;54.192;15.670;2023-05-29T11:42:50;9.57;;;2.35;;
21941;SDS011;11135;54.192;15.670;2023-05-29T11:45:56;10.77;;;2.67;;
21941;SDS011;11135;54.192;15.670;2023-05-29T11:49:06;7.53;;;2.20;;
21941;SDS011;11135;54.192;15.670;2023-05-29T11:52:13;9.45;;;2.38;;
21941;SDS011;11135;54.192;15.670;2023-05-29T11:58:33;12.68;;;2.38;;
21941;SDS011;11135;54.192;15.670;2023-05-29T12:01:40;10.45;;;2.30;;
21941;SDS011;11135;54.192;15.670;2023-05-29T12:04:59;11.75;;;2.50;;
21941;SDS011;11135;54.192;15.670;2023-05-29T12:08:13;8.05;;;2.42;;
21941;SDS011;11135;54.192;15.670;2023-05-29T12:11:23;7.85;;;2.03;;
21941;SDS011;11135;54.192;15.670;2023-05-29T12:14:32;7.43;;;1.92;;
21941;SDS011;11135;54.192;15.670;2023-05-29T12:17:38;8.98;;;2.47;;
21941;SDS011;11135;54.192;15.670;2023-05-29T12:20:47;12.65;;;2.65;;
21941;SDS011;11135;54.192;15.670;2023-05-29T12:23:54;10.02;;;2.72;;
21941;SDS011;11135;54.192;15.670;2023-05-29T12:27:06;14.05;;;2.50;;
21941;SDS011;11135;54.192;15.670;2023-05-29T12:30:20;7.15;;;1.90;;
21941;SDS011;11135;54.192;15.670;2023-05-29T12:33:36;6.80;;;2.25;;
21941;SDS011;11135;54.192;15.670;2023-05-29T12:36:42;5.47;;;1.80;;
21941;SDS011;11135;54.192;15.670;2023-05-29T12:43:13;10.90;;;2.60;;
21941;SDS011;11135;54.192;15.670;2023-05-29T12:46:22;9.13;;;2.30;;
21941;SDS011;11135;54.192;15.670;2023-05-29T12:49:28;9.80;;;2.58;;
21941;SDS011;11135;54.192;15.670;2023-05-29T12:52:34;11.05;;;2.15;;
21941;SDS011;11135;54.192;15.670;2023-05-29T12:55:39;8.82;;;2.10;;
21941;SDS011;11135;54.192;15.670;2023-05-29T12:58:46;11.20;;;2.72;;
21941;SDS011;11135;54.192;15.670;2023-05-29T13:01:59;10.63;;;2.40;;
21941;SDS011;11135;54.192;15.670;2023-05-29T13:05:05;10.23;;;2.40;;
21941;SDS011;11135;54.192;15.670;2023-05-29T13:08:12;9.35;;;2.13;;
21941;SDS011;11135;54.192;15.670;2023-05-29T13:11:19;10.50;;;2.55;;
21941;SDS011;11135;54.192;15.670;2023-05-29T13:14:26;10.20;;;2.78;;
21941;SDS011;11135;54.192;15.670;2023-05-29T13:17:35;10.05;;;2.78;;
21941;SDS011;11135;54.192;15.670;2023-05-29T13:20:43;10.13;;;2.53;;
21941;SDS011;11135;54.192;15.670;2023-05-29T13:23:50;8.63;;;2.63;;
21941;SDS011;11135;54.192;15.670;2023-05-29T13:27:01;9.30;;;2.83;;
21941;SDS011;11135;54.192;15.670;2023-05-29T13:30:10;11.85;;;3.33;;
21941;SDS011;11135;54.192;15.670;2023-05-29T13:33:19;10.50;;;2.67;;
21941;SDS011;11135;54.192;15.670;2023-05-29T13:36:32;12.20;;;2.85;;
21941;SDS011;11135;54.192;15.670;2023-05-29T13:39:38;9.32;;;2.85;;
21941;SDS011;11135;54.192;15.670;2023-05-29T13:42:44;10.85;;;3.15;;
21941;SDS011;11135;54.192;15.670;2023-05-29T13:45:53;10.88;;;2.50;;
21941;SDS011;11135;54.192;15.670;2023-05-29T13:49:04;11.93;;;2.67;;
21941;SDS011;11135;54.192;15.670;2023-05-29T13:52:11;8.57;;;2.88;;
21941;SDS011;11135;54.192;15.670;2023-05-29T13:55:19;11.25;;;2.42;;
21941;SDS011;11135;54.192;15.670;2023-05-29T13:58:25;9.38;;;3.25;;
21941;SDS011;11135;54.192;15.670;2023-05-29T14:01:33;9.52;;;2.92;;
21941;SDS011;11135;54.192;15.670;2023-05-29T14:04:44;12.02;;;3.42;;
21941;SDS011;11135;54.192;15.670;2023-05-29T14:07:52;10.63;;;2.63;;
21941;SDS011;11135;54.192;15.670;2023-05-29T14:11:02;9.90;;;3.08;;
21941;SDS011;11135;54.192;15.670;2023-05-29T14:14:09;11.10;;;3.00;;
21941;SDS011;11135;54.192;15.670;2023-05-29T14:17:15;15.32;;;3.47;;
21941;SDS011;11135;54.192;15.670;2023-05-29T14:20:25;10.77;;;2.90;;
21941;SDS011;11135;54.192;15.670;2023-05-29T14:23:51;11.68;;;3.13;;
21941;SDS011;11135;54.192;15.670;2023-05-29T14:27:07;19.75;;;4.40;;
21941;SDS011;11135;54.192;15.670;2023-05-29T14:30:14;9.65;;;2.58;;
21941;SDS011;11135;54.192;15.670;2023-05-29T14:33:22;9.65;;;3.22;;
21941;SDS011;11135;54.192;15.670;2023-05-29T14:36:33;11.65;;;2.78;;
21941;SDS011;11135;54.192;15.670;2023-05-29T14:39:39;12.20;;;3.47;;
21941;SDS011;11135;54.192;15.670;2023-05-29T14:42:55;9.95;;;3.25;;
21941;SDS011;11135;54.192;15.670;2023-05-29T14:46:01;10.27;;;2.90;;
21941;SDS011;11135;54.192;15.670;2023-05-29T14:49:16;10.70;;;2.60;;
21941;SDS011;11135;54.192;15.670;2023-05-29T14:52:29;11.55;;;3.03;;
21941;SDS011;11135;54.192;15.670;2023-05-29T14:55:35;11.27;;;2.88;;
21941;SDS011;11135;54.192;15.670;2023-05-29T14:58:43;11.15;;;2.95;;
21941;SDS011;11135;54.192;15.670;2023-05-29T15:01:50;11.23;;;2.83;;
21941;SDS011;11135;54.192;15.670;2023-05-29T15:05:00;14.32;;;2.90;;
21941;SDS011;11135;54.192;15.670;2023-05-29T15:08:22;13.00;;;2.75;;
21941;SDS011;11135;54.192;15.670;2023-05-29T15:11:31;18.75;;;2.70;;
21941;SDS011;11135;54.192;15.670;2023-05-29T15:14:37;9.02;;;2.53;;
21941;SDS011;11135;54.192;15.670;2023-05-29T15:17:46;16.65;;;3.13;;
21941;SDS011;11135;54.192;15.670;2023-05-29T15:20:59;8.88;;;2.30;;
21941;SDS011;11135;54.192;15.670;2023-05-29T15:24:14;12.82;;;3.03;;
21941;SDS011;11135;54.192;15.670;2023-05-29T15:27:21;9.88;;;2.90;;
21941;SDS011;11135;54.192;15.670;2023-05-29T15:30:31;13.20;;;3.38;;
21941;SDS011;11135;54.192;15.670;2023-05-29T15:33:37;8.90;;;2.45;;
21941;SDS011;11135;54.192;15.670;2023-05-29T15:36:49;12.57;;;2.83;;
21941;SDS011;11135;54.192;15.670;2023-05-29T15:40:06;10.55;;;2.67;;
21941;SDS011;11135;54.192;15.670;2023-05-29T15:43:16;12.98;;;3.58;;
21941;SDS011;11135;54.192;15.670;2023-05-29T15:50:10;12.02;;;2.60;;
21941;SDS011;11135;54.192;15.670;2023-05-29T15:53:16;10.50;;;2.42;;
21941;SDS011;11135;54.192;15.670;2023-05-29T15:56:32;11.07;;;2.90;;
21941;SDS011;11135;54.192;15.670;2023-05-29T15:59:42;13.75;;;3.03;;
21941;SDS011;11135;54.192;15.670;2023-05-29T16:02:53;7.27;;;2.37;;
21941;SDS011;11135;54.192;15.670;2023-05-29T16:06:00;11.10;;;2.90;;
21941;SDS011;11135;54.192;15.670;2023-05-29T16:09:11;13.25;;;3.28;;
21941;SDS011;11135;54.192;15.670;2023-05-29T16:12:20;5.47;;;2.03;;
21941;SDS011;11135;54.192;15.670;2023-05-29T16:15:27;12.05;;;2.47;;
21941;SDS011;11135;54.192;15.670;2023-05-29T16:18:39;8.38;;;2.10;;
21941;SDS011;11135;54.192;15.670;2023-05-29T16:21:47;10.48;;;2.67;;
21941;SDS011;11135;54.192;15.670;2023-05-29T16:24:56;11.45;;;2.85;;
21941;SDS011;11135;54.192;15.670;2023-05-29T16:28:04;13.23;;;2.70;;
21941;SDS011;11135;54.192;15.670;2023-05-29T16:31:11;9.27;;;1.77;;
21941;SDS011;11135;54.192;15.670;2023-05-29T16:34:18;9.50;;;2.40;;
21941;SDS011;11135;54.192;15.670;2023-05-29T16:37:26;7.80;;;2.50;;
21941;SDS011;11135;54.192;15.670;2023-05-29T16:40:32;14.05;;;2.67;;
21941;SDS011;11135;54.192;15.670;2023-05-29T16:43:41;10.52;;;2.47;;
21941;SDS011;11135;54.192;15.670;2023-05-29T16:46:50;11.00;;;2.75;;
21941;SDS011;11135;54.192;15.670;2023-05-29T16:49:56;10.48;;;3.20;;
21941;SDS011;11135;54.192;15.670;2023-05-29T16:53:02;6.07;;;2.60;;
21941;SDS011;11135;54.192;15.670;2023-05-29T16:56:13;9.68;;;2.40;;
21941;SDS011;11135;54.192;15.670;2023-05-29T16:59:24;10.25;;;2.60;;
21941;SDS011;11135;54.192;15.670;2023-05-29T17:02:34;14.25;;;2.85;;
21941;SDS011;11135;54.192;15.670;2023-05-29T17:05:41;8.25;;;2.58;;
21941;SDS011;11135;54.192;15.670;2023-05-29T17:08:49;9.43;;;2.85;;
21941;SDS011;11135;54.192;15.670;2023-05-29T17:11:55;9.43;;;2.53;;
21941;SDS011;11135;54.192;15.670;2023-05-29T17:15:09;8.20;;;2.33;;
21941;SDS011;11135;54.192;15.670;2023-05-29T17:18:16;11.05;;;2.22;;
21941;SDS011;11135;54.192;15.670;2023-05-29T17:21:25;5.15;;;1.80;;
21941;SDS011;11135;54.192;15.670;2023-05-29T17:24:33;9.43;;;2.15;;
21941;SDS011;11135;54.192;15.670;2023-05-29T17:27:39;12.07;;;2.40;;
21941;SDS011;11135;54.192;15.670;2023-05-29T17:30:51;11.10;;;3.05;;
21941;SDS011;11135;54.192;15.670;2023-05-29T17:33:58;11.07;;;2.38;;
21941;SDS011;11135;54.192;15.670;2023-05-29T17:37:06;7.57;;;2.35;;
21941;SDS011;11135;54.192;15.670;2023-05-29T17:40:15;8.05;;;2.13;;
21941;SDS011;11135;54.192;15.670;2023-05-29T17:43:21;15.75;;;3.35;;
21941;SDS011;11135;54.192;15.670;2023-05-29T17:46:31;8.80;;;2.08;;
21941;SDS011;11135;54.192;15.670;2023-05-29T17:49:39;11.77;;;2.20;;
21941;SDS011;11135;54.192;15.670;2023-05-29T17:52:50;9.68;;;2.42;;
21941;SDS011;11135;54.192;15.670;2023-05-29T17:55:57;11.55;;;3.00;;
21941;SDS011;11135;54.192;15.670;2023-05-29T17:59:11;11.65;;;2.10;;
21941;SDS011;11135;54.192;15.670;2023-05-29T18:02:24;9.25;;;2.55;;
21941;SDS011;11135;54.192;15.670;2023-05-29T18:05:32;7.95;;;2.50;;
21941;SDS011;11135;54.192;15.670;2023-05-29T18:08:42;11.63;;;2.50;;
21941;SDS011;11135;54.192;15.670;2023-05-29T18:11:48;7.78;;;2.10;;
21941;SDS011;11135;54.192;15.670;2023-05-29T18:15:00;14.27;;;2.40;;
21941;SDS011;11135;54.192;15.670;2023-05-29T18:18:15;11.20;;;2.58;;
21941;SDS011;11135;54.192;15.670;2023-05-29T18:21:24;11.52;;;2.85;;
21941;SDS011;11135;54.192;15.670;2023-05-29T18:24:31;9.05;;;2.03;;
21941;SDS011;11135;54.192;15.670;2023-05-29T18:27:36;8.32;;;2.40;;
21941;SDS011;11135;54.192;15.670;2023-05-29T18:30:46;7.40;;;2.00;;
21941;SDS011;11135;54.192;15.670;2023-05-29T18:33:59;15.30;;;2.40;;
21941;SDS011;11135;54.192;15.670;2023-05-29T18:37:09;11.73;;;2.42;;
21941;SDS011;11135;54.192;15.670;2023-05-29T18:40:21;12.98;;;2.55;;
21941;SDS011;11135;54.192;15.670;2023-05-29T18:43:27;10.98;;;2.50;;
21941;SDS011;11135;54.192;15.670;2023-05-29T18:46:36;8.15;;;2.20;;
21941;SDS011;11135;54.192;15.670;2023-05-29T18:49:46;10.43;;;2.60;;
21941;SDS011;11135;54.192;15.670;2023-05-29T18:52:53;9.18;;;2.03;;